AirNav   Air Wisconsin Up To $57,000 Bonus
 
 356 users online  

1MI3 Black River Ranch Airport
Onaway, Michigan, USA

GOING TO ONAWAY?


FAA INFORMATION EFFECTIVE 07 NOVEMBER 2019

Location

FAA Identifier: 1MI3
Lat/Long: 45-11-45.0440N 084-19-18.0540W
45-11.750733N 084-19.300900W
45.1958456,-84.3216817
(estimated)
Elevation: 880 ft. / 268 m (estimated)
Variation: 06W (1985)
From city: 10 miles SW of ONAWAY, MI
Time zone: UTC -5 (UTC -4 during Daylight Saving Time)
Zip code: 49765

Airport Operations

Airport use: Private use. Permission required prior to landing
Activation date: 11/1948
Control tower: no
ARTCC: MINNEAPOLIS CENTER
FSS: LANSING FLIGHT SERVICE STATION
Attendance: UNATNDD
Wind indicator: no
Segmented circle: no

Airport Communications

WX ASOS at GLR (20 nm SW): 118.375 (989-732-1571)

Nearby radio navigation aids

VOR radial/distance  VOR name  Freq  Var
GLRr062/19.6GAYLORD VOR/DME109.2006W
PLNr157/29.8PELLSTON VORTAC111.8006W
APNr289/33.1ALPENA VORTAC108.8007W
CGGr035/(35.4)GRAYLING VOR109.8006W

 
NDB name  Hdg/Dist  Freq  Var  ID
GRAYLING045/34.335906WGYG --. -.-- --.

Airport Services

Airframe service: NONE
Powerplant service: NONE

Runway Information

Runway E/W

Dimensions: 3900 x 60 ft. / 1189 x 18 m
Surface: asphalt
RUNWAY E  RUNWAY W
Traffic pattern: leftleft
Obstructions: nonepline

Airport Ownership and Management from official FAA records

Ownership: Privately-owned
Manager: TIM MICHIEL
9410 CLARK BRIDGE ROAD
ONAWAY, MI 49765
Phone 989-733-8375

Airport Operational Statistics

Aircraft based on the field: 5
Single engine airplanes: 2
Multi engine airplanes: 1
Jet airplanes: 2
    

Additional Remarks

FOR CD CTC MINNEAPOLIS ARTCC AT 651-463-5588.

Instrument Procedures

There are no published instrument procedures at 1MI3.

Some nearby airports with instrument procedures:

KGLR - Gaylord Regional Airport (20 nm SW)
KPZQ - Presque Isle County Airport (25 nm NE)
KBFA - Boyne Mountain Airport (26 nm W)
N98 - Boyne City Municipal Airport (28 nm W)
KMGN - Harbor Springs Airport (29 nm NW)
 
Loc | Ops | Rwys | IFR | FBO | Links
Com | Nav | Svcs | Stats | Notes
Area around 1MI3 (Black River Ranch Airport)
 
Road maps at: MapQuest Bing Google
 
Aerial photo
No photo
 
Sectional chart

 
Airport distance calculator
Flying to Black River Ranch Airport? Find the distance to fly.

From to 1MI3

Sunrise and sunset
Times for 13-Nov-2019
 Local
(UTC-5)
 Zulu
(UTC)
Morning civil twilight07:0212:02
Sunrise07:3412:34
Sunset17:0922:09
Evening civil twilight17:4122:41

Current date and time
Zulu (UTC)  13-Nov-2019 07:12:00
Local (UTC-5)  13-Nov-2019 02:12:00
 
METAR
KGLR 
19nm SW 
130653Z AUTO 21006KT 10SM OVC043 M10/M12 A3022 RMK AO2 SNE35 SLP262 P0000 T11001122
KPZQ 
25nm NE 
130655Z AUTO 24008KT 10SM OVC041 M07/M10 A3027 RMK AO2 T10681100
KSLH 
28nm N 
130656Z AUTO 00000KT 10SM OVC041 M07/M09 A3025 RMK AO2 T10721089
KMGN 
29nm NW 
130656Z AUTO 09003KT 5SM -SN SCT009 OVC017 M06/M06 A3026 RMK AO2 T10611064
KPLN 
30nm NW 
130654Z AUTO 15003KT 10SM OVC049 M08/M10 A3026 RMK AO2 SLP261 T10781100
KAPN 
33nm E 
130654Z AUTO 24006KT 10SM BKN048 M09/M11 A3028 RMK AO2 SLP269 T10891106 $
KGOV 
35nm SW 
130658Z AUTO 26005KT 10SM CLR M12/M13 A3025 RMK AO2 SLP273 T11161131 $
TAF
KPLN 
30nm NW 
130520Z 1306/1406 VRB03KT P6SM BKN035 FM131200 18011G19KT P6SM BKN045 FM131500 18012G21KT P6SM VCSH BKN040 FM131800 18013G21KT 2SM -SHSN OVC029 FM140000 18009KT 2SM -SHSN OVC029 FM140400 20006KT 3SM -SHSN OVC022
KAPN 
33nm E 
130520Z 1306/1406 28006KT P6SM SCT050 FM131000 20005KT P6SM SCT060 FM131700 19011G19KT P6SM OVC035 FM132100 18012G19KT 4SM -SHSN OVC030 FM132300 20010KT 2SM -SHSN OVC028 FM140100 20009KT 1 1/2SM -SHSN OVC022 FM140400 21008KT 2SM -SHSN OVC028
NOTAMs
Click for the latest NOTAMs
NOTAMs are issued by the DoD/FAA and will open in a separate window not controlled by AirNav.

 

 
 

Would you like to see your business listed on this page?

 If your business provides an interesting product or service to pilots, flight crews, aircraft, or users of the Black River Ranch Airport, you should consider listing it here.  To start the listing process, click on the button below
 
Add a business
 

Other Pages about Black River Ranch Airport

Update a link
 
Copyright © AirNav, LLC. All rights reserved. Privacy Policy  Contact